sensor_id;sensor_type;location;lat;lon;timestamp;P1;durP1;ratioP1;P2;durP2;ratioP2
12844;SDS011;68700;48.534;9.196;2024-03-23T00:56:09;7.03;;;5.90;;
12844;SDS011;68700;48.534;9.196;2024-03-23T00:59:31;6.97;;;5.53;;
12844;SDS011;68700;48.534;9.196;2024-03-23T01:02:53;7.33;;;5.83;;
12844;SDS011;68700;48.534;9.196;2024-03-23T01:06:15;7.23;;;5.93;;
12844;SDS011;68700;48.534;9.196;2024-03-23T01:09:37;8.33;;;6.37;;
12844;SDS011;68700;48.534;9.196;2024-03-23T01:12:59;7.10;;;6.13;;
12844;SDS011;68700;48.534;9.196;2024-03-23T01:16:21;8.23;;;6.43;;
12844;SDS011;68700;48.534;9.196;2024-03-23T01:19:43;7.23;;;6.53;;
12844;SDS011;68700;48.534;9.196;2024-03-23T01:23:05;7.90;;;6.10;;
12844;SDS011;68700;48.534;9.196;2024-03-23T01:26:28;7.17;;;6.00;;
12844;SDS011;68700;48.534;9.196;2024-03-23T01:29:49;7.87;;;6.50;;
12844;SDS011;68700;48.534;9.196;2024-03-23T01:33:12;8.20;;;6.90;;
12844;SDS011;68700;48.534;9.196;2024-03-23T01:36:33;8.67;;;6.67;;
12844;SDS011;68700;48.534;9.196;2024-03-23T01:39:55;8.33;;;6.67;;
12844;SDS011;68700;48.534;9.196;2024-03-23T01:43:17;8.47;;;6.90;;
12844;SDS011;68700;48.534;9.196;2024-03-23T01:46:39;9.63;;;6.70;;
12844;SDS011;68700;48.534;9.196;2024-03-23T01:50:01;9.80;;;7.00;;
12844;SDS011;68700;48.534;9.196;2024-03-23T01:53:23;8.70;;;6.67;;
12844;SDS011;68700;48.534;9.196;2024-03-23T01:56:46;8.23;;;7.40;;
12844;SDS011;68700;48.534;9.196;2024-03-23T02:00:11;7.93;;;6.83;;
12844;SDS011;68700;48.534;9.196;2024-03-23T02:03:33;8.57;;;6.77;;
12844;SDS011;68700;48.534;9.196;2024-03-23T02:06:55;6.90;;;6.20;;
12844;SDS011;68700;48.534;9.196;2024-03-23T02:10:17;10.87;;;6.50;;
12844;SDS011;68700;48.534;9.196;2024-03-23T02:13:38;7.53;;;6.00;;
12844;SDS011;68700;48.534;9.196;2024-03-23T02:17:01;7.50;;;6.10;;
12844;SDS011;68700;48.534;9.196;2024-03-23T02:20:22;6.17;;;5.57;;
12844;SDS011;68700;48.534;9.196;2024-03-23T02:23:45;7.93;;;5.43;;
12844;SDS011;68700;48.534;9.196;2024-03-23T02:27:07;7.23;;;5.63;;
12844;SDS011;68700;48.534;9.196;2024-03-23T02:30:28;5.83;;;5.07;;
12844;SDS011;68700;48.534;9.196;2024-03-23T02:33:50;5.60;;;4.70;;
12844;SDS011;68700;48.534;9.196;2024-03-23T02:37:12;7.57;;;6.30;;
12844;SDS011;68700;48.534;9.196;2024-03-23T02:40:34;7.23;;;5.70;;
12844;SDS011;68700;48.534;9.196;2024-03-23T02:43:57;7.10;;;5.57;;
12844;SDS011;68700;48.534;9.196;2024-03-23T02:47:18;8.20;;;5.50;;
12844;SDS011;68700;48.534;9.196;2024-03-23T02:50:40;8.73;;;5.50;;
12844;SDS011;68700;48.534;9.196;2024-03-23T02:54:01;6.73;;;5.00;;
12844;SDS011;68700;48.534;9.196;2024-03-23T02:57:24;5.93;;;5.30;;
12844;SDS011;68700;48.534;9.196;2024-03-23T03:00:46;9.10;;;6.17;;
12844;SDS011;68700;48.534;9.196;2024-03-23T03:04:08;7.23;;;5.70;;
12844;SDS011;68700;48.534;9.196;2024-03-23T03:07:30;6.60;;;4.93;;
12844;SDS011;68700;48.534;9.196;2024-03-23T03:10:52;6.63;;;5.80;;
12844;SDS011;68700;48.534;9.196;2024-03-23T03:14:14;6.03;;;5.37;;
12844;SDS011;68700;48.534;9.196;2024-03-23T03:17:36;7.77;;;5.47;;
12844;SDS011;68700;48.534;9.196;2024-03-23T03:20:58;7.63;;;5.50;;
12844;SDS011;68700;48.534;9.196;2024-03-23T03:24:18;7.90;;;5.07;;
12844;SDS011;68700;48.534;9.196;2024-03-23T03:27:40;5.07;;;4.47;;
12844;SDS011;68700;48.534;9.196;2024-03-23T03:31:03;7.10;;;5.00;;
12844;SDS011;68700;48.534;9.196;2024-03-23T03:34:24;9.00;;;5.17;;
12844;SDS011;68700;48.534;9.196;2024-03-23T03:37:45;6.17;;;4.83;;
12844;SDS011;68700;48.534;9.196;2024-03-23T03:41:07;6.23;;;5.40;;
12844;SDS011;68700;48.534;9.196;2024-03-23T03:44:29;6.27;;;4.70;;
12844;SDS011;68700;48.534;9.196;2024-03-23T03:47:52;5.33;;;4.83;;
12844;SDS011;68700;48.534;9.196;2024-03-23T03:51:13;7.20;;;4.50;;
12844;SDS011;68700;48.534;9.196;2024-03-23T03:54:35;5.13;;;3.80;;
12844;SDS011;68700;48.534;9.196;2024-03-23T03:57:57;4.60;;;3.53;;
12844;SDS011;68700;48.534;9.196;2024-03-23T04:01:17;4.70;;;3.50;;
12844;SDS011;68700;48.534;9.196;2024-03-23T04:04:40;5.13;;;3.27;;
12844;SDS011;68700;48.534;9.196;2024-03-23T04:08:02;5.50;;;3.23;;
12844;SDS011;68700;48.534;9.196;2024-03-23T04:11:25;5.13;;;2.90;;
12844;SDS011;68700;48.534;9.196;2024-03-23T04:14:45;3.53;;;2.97;;
12844;SDS011;68700;48.534;9.196;2024-03-23T04:18:07;4.30;;;3.07;;
12844;SDS011;68700;48.534;9.196;2024-03-23T04:21:32;3.30;;;2.70;;
12844;SDS011;68700;48.534;9.196;2024-03-23T04:24:54;3.33;;;2.67;;
12844;SDS011;68700;48.534;9.196;2024-03-23T04:28:15;4.63;;;2.47;;
12844;SDS011;68700;48.534;9.196;2024-03-23T04:31:37;4.13;;;2.47;;
12844;SDS011;68700;48.534;9.196;2024-03-23T04:34:59;2.93;;;2.33;;
12844;SDS011;68700;48.534;9.196;2024-03-23T04:38:21;3.03;;;2.30;;
12844;SDS011;68700;48.534;9.196;2024-03-23T04:41:43;3.57;;;2.40;;
12844;SDS011;68700;48.534;9.196;2024-03-23T04:45:05;2.63;;;2.40;;
12844;SDS011;68700;48.534;9.196;2024-03-23T04:48:28;3.97;;;2.20;;
12844;SDS011;68700;48.534;9.196;2024-03-23T04:51:49;3.63;;;2.23;;
12844;SDS011;68700;48.534;9.196;2024-03-23T04:55:13;3.33;;;2.77;;
12844;SDS011;68700;48.534;9.196;2024-03-23T04:58:35;3.57;;;2.50;;
12844;SDS011;68700;48.534;9.196;2024-03-23T05:01:57;3.37;;;2.30;;
12844;SDS011;68700;48.534;9.196;2024-03-23T05:05:19;3.27;;;2.60;;
12844;SDS011;68700;48.534;9.196;2024-03-23T05:08:40;3.20;;;2.30;;
12844;SDS011;68700;48.534;9.196;2024-03-23T05:12:04;5.23;;;2.87;;
12844;SDS011;68700;48.534;9.196;2024-03-23T05:15:26;3.43;;;2.50;;
12844;SDS011;68700;48.534;9.196;2024-03-23T05:18:48;4.27;;;2.77;;
12844;SDS011;68700;48.534;9.196;2024-03-23T05:22:09;4.03;;;3.10;;
12844;SDS011;68700;48.534;9.196;2024-03-23T05:25:31;3.07;;;2.40;;
12844;SDS011;68700;48.534;9.196;2024-03-23T05:28:53;3.57;;;2.80;;
12844;SDS011;68700;48.534;9.196;2024-03-23T05:32:15;3.03;;;2.73;;
12844;SDS011;68700;48.534;9.196;2024-03-23T05:35:36;2.67;;;2.47;;
12844;SDS011;68700;48.534;9.196;2024-03-23T05:38:58;3.50;;;2.83;;
12844;SDS011;68700;48.534;9.196;2024-03-23T05:42:19;4.20;;;3.77;;
12844;SDS011;68700;48.534;9.196;2024-03-23T05:45:43;5.87;;;4.10;;
12844;SDS011;68700;48.534;9.196;2024-03-23T05:49:03;5.30;;;4.40;;
12844;SDS011;68700;48.534;9.196;2024-03-23T05:52:25;8.13;;;5.90;;
12844;SDS011;68700;48.534;9.196;2024-03-23T05:55:47;6.73;;;5.30;;
12844;SDS011;68700;48.534;9.196;2024-03-23T05:59:08;5.60;;;4.90;;
12844;SDS011;68700;48.534;9.196;2024-03-23T06:02:31;7.60;;;5.40;;
12844;SDS011;68700;48.534;9.196;2024-03-23T06:05:53;6.03;;;4.83;;
12844;SDS011;68700;48.534;9.196;2024-03-23T06:09:14;6.87;;;5.33;;
12844;SDS011;68700;48.534;9.196;2024-03-23T06:12:36;6.23;;;5.40;;
12844;SDS011;68700;48.534;9.196;2024-03-23T06:15:58;7.03;;;5.20;;
12844;SDS011;68700;48.534;9.196;2024-03-23T06:19:21;6.73;;;5.37;;
12844;SDS011;68700;48.534;9.196;2024-03-23T06:22:42;4.97;;;4.40;;
12844;SDS011;68700;48.534;9.196;2024-03-23T06:26:03;5.37;;;4.13;;
12844;SDS011;68700;48.534;9.196;2024-03-23T06:29:25;4.53;;;3.60;;
12844;SDS011;68700;48.534;9.196;2024-03-23T06:32:48;5.27;;;4.07;;
12844;SDS011;68700;48.534;9.196;2024-03-23T06:36:11;5.10;;;4.07;;
12844;SDS011;68700;48.534;9.196;2024-03-23T06:39:33;3.27;;;2.97;;
12844;SDS011;68700;48.534;9.196;2024-03-23T06:42:55;3.90;;;2.30;;
12844;SDS011;68700;48.534;9.196;2024-03-23T06:46:16;2.27;;;2.07;;
12844;SDS011;68700;48.534;9.196;2024-03-23T06:49:37;1.40;;;1.30;;
12844;SDS011;68700;48.534;9.196;2024-03-23T06:53:00;3.43;;;1.50;;
12844;SDS011;68700;48.534;9.196;2024-03-23T06:56:25;1.87;;;1.37;;
12844;SDS011;68700;48.534;9.196;2024-03-23T06:59:47;1.40;;;1.30;;
12844;SDS011;68700;48.534;9.196;2024-03-23T07:03:09;1.23;;;1.10;;
12844;SDS011;68700;48.534;9.196;2024-03-23T07:06:31;1.80;;;1.00;;
12844;SDS011;68700;48.534;9.196;2024-03-23T07:09:53;1.10;;;0.90;;
12844;SDS011;68700;48.534;9.196;2024-03-23T07:13:15;1.00;;;1.00;;
12844;SDS011;68700;48.534;9.196;2024-03-23T07:16:37;1.00;;;0.90;;
12844;SDS011;68700;48.534;9.196;2024-03-23T07:19:59;0.97;;;0.83;;
12844;SDS011;68700;48.534;9.196;2024-03-23T07:23:24;1.07;;;0.93;;
12844;SDS011;68700;48.534;9.196;2024-03-23T07:26:47;1.03;;;0.90;;
12844;SDS011;68700;48.534;9.196;2024-03-23T07:30:11;1.60;;;0.70;;
12844;SDS011;68700;48.534;9.196;2024-03-23T07:33:33;1.10;;;0.80;;
12844;SDS011;68700;48.534;9.196;2024-03-23T07:36:54;0.70;;;0.70;;
12844;SDS011;68700;48.534;9.196;2024-03-23T07:40:16;0.70;;;0.70;;
12844;SDS011;68700;48.534;9.196;2024-03-23T07:43:39;0.80;;;0.80;;
12844;SDS011;68700;48.534;9.196;2024-03-23T07:47:00;1.00;;;0.80;;
12844;SDS011;68700;48.534;9.196;2024-03-23T07:50:22;0.90;;;0.70;;
12844;SDS011;68700;48.534;9.196;2024-03-23T07:53:44;0.60;;;0.60;;
12844;SDS011;68700;48.534;9.196;2024-03-23T07:57:08;0.80;;;0.80;;
12844;SDS011;68700;48.534;9.196;2024-03-23T08:00:31;0.60;;;0.60;;
12844;SDS011;68700;48.534;9.196;2024-03-23T08:03:53;0.77;;;0.60;;
12844;SDS011;68700;48.534;9.196;2024-03-23T08:07:15;0.50;;;0.50;;
12844;SDS011;68700;48.534;9.196;2024-03-23T08:10:37;0.50;;;0.50;;
12844;SDS011;68700;48.534;9.196;2024-03-23T08:14:06;0.50;;;0.50;;
12844;SDS011;68700;48.534;9.196;2024-03-23T08:17:29;1.07;;;0.70;;
12844;SDS011;68700;48.534;9.196;2024-03-23T08:20:56;0.97;;;0.63;;
12844;SDS011;68700;48.534;9.196;2024-03-23T08:24:19;1.07;;;0.70;;
12844;SDS011;68700;48.534;9.196;2024-03-23T08:27:41;0.70;;;0.70;;
12844;SDS011;68700;48.534;9.196;2024-03-23T08:31:04;1.00;;;0.73;;
12844;SDS011;68700;48.534;9.196;2024-03-23T08:34:27;1.80;;;0.87;;
12844;SDS011;68700;48.534;9.196;2024-03-23T08:37:49;1.87;;;1.40;;
12844;SDS011;68700;48.534;9.196;2024-03-23T08:41:11;2.00;;;1.07;;
12844;SDS011;68700;48.534;9.196;2024-03-23T08:44:33;2.23;;;1.20;;
12844;SDS011;68700;48.534;9.196;2024-03-23T08:47:55;2.03;;;1.33;;
12844;SDS011;68700;48.534;9.196;2024-03-23T08:51:18;1.70;;;1.23;;
12844;SDS011;68700;48.534;9.196;2024-03-23T08:54:39;4.07;;;1.40;;
12844;SDS011;68700;48.534;9.196;2024-03-23T08:58:01;3.20;;;1.30;;
12844;SDS011;68700;48.534;9.196;2024-03-23T09:01:24;3.53;;;2.00;;
12844;SDS011;68700;48.534;9.196;2024-03-23T09:04:45;3.37;;;1.73;;
12844;SDS011;68700;48.534;9.196;2024-03-23T09:08:09;2.47;;;1.73;;
12844;SDS011;68700;48.534;9.196;2024-03-23T09:11:30;5.30;;;2.10;;
12844;SDS011;68700;48.534;9.196;2024-03-23T09:14:51;3.90;;;2.13;;
12844;SDS011;68700;48.534;9.196;2024-03-23T09:18:14;3.53;;;2.27;;
12844;SDS011;68700;48.534;9.196;2024-03-23T09:21:36;3.20;;;2.20;;
12844;SDS011;68700;48.534;9.196;2024-03-23T09:24:58;7.30;;;2.60;;
12844;SDS011;68700;48.534;9.196;2024-03-23T09:28:19;5.73;;;2.33;;
12844;SDS011;68700;48.534;9.196;2024-03-23T09:31:41;4.00;;;2.45;;
12844;SDS011;68700;48.534;9.196;2024-03-23T09:35:03;5.70;;;2.80;;
12844;SDS011;68700;48.534;9.196;2024-03-23T09:38:25;5.20;;;2.33;;
12844;SDS011;68700;48.534;9.196;2024-03-23T09:41:49;4.03;;;2.67;;
12844;SDS011;68700;48.534;9.196;2024-03-23T09:45:11;4.27;;;2.60;;
12844;SDS011;68700;48.534;9.196;2024-03-23T09:48:38;4.67;;;2.73;;
12844;SDS011;68700;48.534;9.196;2024-03-23T09:52:00;3.57;;;2.57;;
12844;SDS011;68700;48.534;9.196;2024-03-23T09:55:22;5.47;;;2.77;;
12844;SDS011;68700;48.534;9.196;2024-03-23T09:58:45;4.00;;;2.60;;
12844;SDS011;68700;48.534;9.196;2024-03-23T10:02:07;4.93;;;2.90;;
12844;SDS011;68700;48.534;9.196;2024-03-23T10:05:30;5.30;;;2.30;;
12844;SDS011;68700;48.534;9.196;2024-03-23T10:08:52;5.33;;;2.30;;
12844;SDS011;68700;48.534;9.196;2024-03-23T10:12:16;6.30;;;2.40;;
12844;SDS011;68700;48.534;9.196;2024-03-23T10:15:40;4.77;;;2.00;;
12844;SDS011;68700;48.534;9.196;2024-03-23T10:19:02;3.53;;;2.00;;
12844;SDS011;68700;48.534;9.196;2024-03-23T10:22:23;3.23;;;2.20;;
12844;SDS011;68700;48.534;9.196;2024-03-23T10:25:45;5.03;;;2.17;;
12844;SDS011;68700;48.534;9.196;2024-03-23T10:29:06;4.27;;;1.97;;
12844;SDS011;68700;48.534;9.196;2024-03-23T10:32:32;3.07;;;1.93;;
12844;SDS011;68700;48.534;9.196;2024-03-23T10:35:53;5.03;;;2.00;;
12844;SDS011;68700;48.534;9.196;2024-03-23T10:39:15;3.40;;;2.40;;
12844;SDS011;68700;48.534;9.196;2024-03-23T10:42:37;4.33;;;2.20;;
12844;SDS011;68700;48.534;9.196;2024-03-23T10:45:59;7.90;;;2.97;;
12844;SDS011;68700;48.534;9.196;2024-03-23T10:49:21;6.57;;;2.93;;
12844;SDS011;68700;48.534;9.196;2024-03-23T10:52:45;4.73;;;2.30;;
12844;SDS011;68700;48.534;9.196;2024-03-23T10:56:08;4.37;;;2.60;;
12844;SDS011;68700;48.534;9.196;2024-03-23T10:59:33;4.83;;;2.60;;
12844;SDS011;68700;48.534;9.196;2024-03-23T11:02:58;6.50;;;2.60;;
12844;SDS011;68700;48.534;9.196;2024-03-23T11:06:39;3.97;;;1.87;;
12844;SDS011;68700;48.534;9.196;2024-03-23T11:10:01;5.17;;;2.30;;
12844;SDS011;68700;48.534;9.196;2024-03-23T11:13:23;2.70;;;2.03;;
12844;SDS011;68700;48.534;9.196;2024-03-23T11:16:45;4.43;;;2.17;;
12844;SDS011;68700;48.534;9.196;2024-03-23T11:20:06;3.57;;;1.67;;
12844;SDS011;68700;48.534;9.196;2024-03-23T11:23:31;4.33;;;2.30;;
12844;SDS011;68700;48.534;9.196;2024-03-23T11:26:51;3.13;;;1.50;;
12844;SDS011;68700;48.534;9.196;2024-03-23T11:30:14;3.47;;;1.50;;
12844;SDS011;68700;48.534;9.196;2024-03-23T11:33:38;3.80;;;1.60;;
12844;SDS011;68700;48.534;9.196;2024-03-23T11:37:03;4.17;;;1.70;;
12844;SDS011;68700;48.534;9.196;2024-03-23T11:40:26;5.37;;;2.00;;
12844;SDS011;68700;48.534;9.196;2024-03-23T11:43:49;2.87;;;1.20;;
12844;SDS011;68700;48.534;9.196;2024-03-23T11:47:10;3.47;;;1.50;;
12844;SDS011;68700;48.534;9.196;2024-03-23T11:50:31;5.10;;;1.73;;
12844;SDS011;68700;48.534;9.196;2024-03-23T11:53:54;7.17;;;1.70;;
12844;SDS011;68700;48.534;9.196;2024-03-23T11:57:29;9.53;;;3.30;;
12844;SDS011;68700;48.534;9.196;2024-03-23T12:00:52;7.30;;;2.53;;
12844;SDS011;68700;48.534;9.196;2024-03-23T12:04:24;7.97;;;3.27;;
12844;SDS011;68700;48.534;9.196;2024-03-23T12:07:47;4.90;;;1.80;;
12844;SDS011;68700;48.534;9.196;2024-03-23T12:11:09;5.87;;;2.03;;
12844;SDS011;68700;48.534;9.196;2024-03-23T12:14:34;3.33;;;1.53;;
12844;SDS011;68700;48.534;9.196;2024-03-23T12:18:05;2.60;;;1.83;;
12844;SDS011;68700;48.534;9.196;2024-03-23T12:21:28;8.10;;;2.30;;
12844;SDS011;68700;48.534;9.196;2024-03-23T12:24:49;1.97;;;1.73;;
12844;SDS011;68700;48.534;9.196;2024-03-23T12:28:12;6.07;;;2.20;;
12844;SDS011;68700;48.534;9.196;2024-03-23T12:31:35;8.03;;;2.03;;
12844;SDS011;68700;48.534;9.196;2024-03-23T12:34:57;5.37;;;2.00;;
12844;SDS011;68700;48.534;9.196;2024-03-23T12:38:17;5.30;;;2.10;;
12844;SDS011;68700;48.534;9.196;2024-03-23T12:41:39;5.00;;;1.73;;
12844;SDS011;68700;48.534;9.196;2024-03-23T12:45:01;2.53;;;1.70;;
12844;SDS011;68700;48.534;9.196;2024-03-23T12:48:24;3.83;;;1.90;;
12844;SDS011;68700;48.534;9.196;2024-03-23T12:51:48;4.17;;;1.60;;
12844;SDS011;68700;48.534;9.196;2024-03-23T12:55:14;2.77;;;1.40;;
12844;SDS011;68700;48.534;9.196;2024-03-23T12:58:36;2.30;;;1.40;;
12844;SDS011;68700;48.534;9.196;2024-03-23T13:01:57;1.77;;;1.50;;
12844;SDS011;68700;48.534;9.196;2024-03-23T13:05:20;3.97;;;1.70;;
12844;SDS011;68700;48.534;9.196;2024-03-23T13:08:41;4.83;;;1.60;;
12844;SDS011;68700;48.534;9.196;2024-03-23T13:12:05;5.10;;;1.67;;
12844;SDS011;68700;48.534;9.196;2024-03-23T13:15:26;3.03;;;1.47;;
12844;SDS011;68700;48.534;9.196;2024-03-23T13:18:48;4.00;;;1.80;;
12844;SDS011;68700;48.534;9.196;2024-03-23T13:22:11;2.63;;;1.30;;
12844;SDS011;68700;48.534;9.196;2024-03-23T13:25:33;3.07;;;1.53;;
12844;SDS011;68700;48.534;9.196;2024-03-23T13:28:53;3.90;;;1.53;;
12844;SDS011;68700;48.534;9.196;2024-03-23T13:32:15;2.93;;;1.70;;
12844;SDS011;68700;48.534;9.196;2024-03-23T13:35:37;2.67;;;1.50;;
12844;SDS011;68700;48.534;9.196;2024-03-23T13:38:59;1.17;;;1.00;;
12844;SDS011;68700;48.534;9.196;2024-03-23T13:42:22;2.30;;;0.80;;
12844;SDS011;68700;48.534;9.196;2024-03-23T13:45:46;2.43;;;1.07;;
12844;SDS011;68700;48.534;9.196;2024-03-23T13:49:08;2.10;;;0.90;;
12844;SDS011;68700;48.534;9.196;2024-03-23T13:52:45;2.20;;;1.30;;
12844;SDS011;68700;48.534;9.196;2024-03-23T13:56:08;4.50;;;1.20;;
12844;SDS011;68700;48.534;9.196;2024-03-23T13:59:29;2.13;;;1.33;;
12844;SDS011;68700;48.534;9.196;2024-03-23T14:02:51;3.87;;;1.40;;
12844;SDS011;68700;48.534;9.196;2024-03-23T14:06:12;3.00;;;1.40;;
12844;SDS011;68700;48.534;9.196;2024-03-23T14:09:33;3.13;;;1.60;;
12844;SDS011;68700;48.534;9.196;2024-03-23T14:12:56;3.27;;;1.30;;
12844;SDS011;68700;48.534;9.196;2024-03-23T14:16:19;2.70;;;0.90;;
12844;SDS011;68700;48.534;9.196;2024-03-23T14:19:41;2.27;;;0.87;;
12844;SDS011;68700;48.534;9.196;2024-03-23T14:23:02;2.90;;;1.20;;
12844;SDS011;68700;48.534;9.196;2024-03-23T14:26:24;3.03;;;1.20;;
12844;SDS011;68700;48.534;9.196;2024-03-23T14:29:48;2.40;;;1.20;;
12844;SDS011;68700;48.534;9.196;2024-03-23T14:33:08;2.13;;;0.90;;
12844;SDS011;68700;48.534;9.196;2024-03-23T14:36:30;3.53;;;0.93;;
12844;SDS011;68700;48.534;9.196;2024-03-23T14:39:51;2.80;;;0.90;;
12844;SDS011;68700;48.534;9.196;2024-03-23T14:43:13;3.90;;;1.30;;
12844;SDS011;68700;48.534;9.196;2024-03-23T14:46:37;2.43;;;1.20;;
12844;SDS011;68700;48.534;9.196;2024-03-23T14:49:58;6.10;;;1.20;;
12844;SDS011;68700;48.534;9.196;2024-03-23T14:53:21;2.13;;;1.20;;
12844;SDS011;68700;48.534;9.196;2024-03-23T14:56:42;3.03;;;1.10;;
12844;SDS011;68700;48.534;9.196;2024-03-23T15:00:04;3.93;;;1.53;;
12844;SDS011;68700;48.534;9.196;2024-03-23T15:03:29;3.50;;;1.63;;
12844;SDS011;68700;48.534;9.196;2024-03-23T15:06:53;2.60;;;0.90;;
12844;SDS011;68700;48.534;9.196;2024-03-23T15:10:15;3.70;;;1.00;;
12844;SDS011;68700;48.534;9.196;2024-03-23T15:13:37;2.00;;;0.80;;
12844;SDS011;68700;48.534;9.196;2024-03-23T15:16:59;1.60;;;1.10;;
12844;SDS011;68700;48.534;9.196;2024-03-23T15:20:21;1.30;;;0.90;;
12844;SDS011;68700;48.534;9.196;2024-03-23T15:23:43;2.53;;;1.07;;
12844;SDS011;68700;48.534;9.196;2024-03-23T15:27:05;1.30;;;0.90;;
12844;SDS011;68700;48.534;9.196;2024-03-23T15:30:29;2.03;;;0.83;;
12844;SDS011;68700;48.534;9.196;2024-03-23T15:33:50;1.73;;;0.87;;
12844;SDS011;68700;48.534;9.196;2024-03-23T15:37:13;2.07;;;0.83;;
12844;SDS011;68700;48.534;9.196;2024-03-23T15:40:35;5.77;;;1.20;;
12844;SDS011;68700;48.534;9.196;2024-03-23T15:43:56;3.53;;;1.73;;
12844;SDS011;68700;48.534;9.196;2024-03-23T15:47:17;5.40;;;1.90;;
12844;SDS011;68700;48.534;9.196;2024-03-23T15:50:40;2.50;;;1.97;;
12844;SDS011;68700;48.534;9.196;2024-03-23T15:54:12;1.47;;;1.13;;
12844;SDS011;68700;48.534;9.196;2024-03-23T15:57:34;2.67;;;1.37;;
12844;SDS011;68700;48.534;9.196;2024-03-23T16:00:55;2.23;;;1.27;;
12844;SDS011;68700;48.534;9.196;2024-03-23T16:04:17;2.80;;;1.63;;
12844;SDS011;68700;48.534;9.196;2024-03-23T16:07:38;3.07;;;1.50;;
12844;SDS011;68700;48.534;9.196;2024-03-23T16:11:02;5.07;;;2.10;;
12844;SDS011;68700;48.534;9.196;2024-03-23T16:14:24;1.60;;;1.20;;
12844;SDS011;68700;48.534;9.196;2024-03-23T16:17:45;3.00;;;2.03;;
12844;SDS011;68700;48.534;9.196;2024-03-23T16:21:07;6.80;;;3.30;;
12844;SDS011;68700;48.534;9.196;2024-03-23T16:24:29;3.70;;;1.27;;
12844;SDS011;68700;48.534;9.196;2024-03-23T16:27:52;8.60;;;3.20;;
12844;SDS011;68700;48.534;9.196;2024-03-23T16:31:14;5.10;;;3.20;;
12844;SDS011;68700;48.534;9.196;2024-03-23T16:34:37;2.87;;;1.50;;
12844;SDS011;68700;48.534;9.196;2024-03-23T16:37:58;2.30;;;1.40;;
12844;SDS011;68700;48.534;9.196;2024-03-23T16:41:20;4.77;;;1.80;;
12844;SDS011;68700;48.534;9.196;2024-03-23T16:44:43;3.17;;;1.40;;
12844;SDS011;68700;48.534;9.196;2024-03-23T16:48:05;5.50;;;2.33;;
12844;SDS011;68700;48.534;9.196;2024-03-23T16:51:26;1.77;;;1.07;;
12844;SDS011;68700;48.534;9.196;2024-03-23T16:54:48;4.17;;;2.17;;
12844;SDS011;68700;48.534;9.196;2024-03-23T16:58:09;4.30;;;1.80;;
12844;SDS011;68700;48.534;9.196;2024-03-23T17:01:32;2.50;;;1.30;;
12844;SDS011;68700;48.534;9.196;2024-03-23T17:04:55;3.00;;;1.17;;
12844;SDS011;68700;48.534;9.196;2024-03-23T17:08:16;4.03;;;1.40;;
12844;SDS011;68700;48.534;9.196;2024-03-23T17:11:39;2.53;;;1.50;;
12844;SDS011;68700;48.534;9.196;2024-03-23T17:15:03;2.40;;;1.20;;
12844;SDS011;68700;48.534;9.196;2024-03-23T17:18:28;1.03;;;0.90;;
12844;SDS011;68700;48.534;9.196;2024-03-23T17:21:50;2.23;;;1.00;;
12844;SDS011;68700;48.534;9.196;2024-03-23T17:25:11;1.70;;;0.90;;
12844;SDS011;68700;48.534;9.196;2024-03-23T17:28:33;2.67;;;1.53;;
12844;SDS011;68700;48.534;9.196;2024-03-23T17:31:54;2.07;;;1.43;;
12844;SDS011;68700;48.534;9.196;2024-03-23T17:35:18;2.33;;;1.60;;
12844;SDS011;68700;48.534;9.196;2024-03-23T17:38:40;3.95;;;2.00;;
12844;SDS011;68700;48.534;9.196;2024-03-23T17:42:02;1.23;;;1.00;;
12844;SDS011;68700;48.534;9.196;2024-03-23T17:45:24;2.53;;;1.80;;
12844;SDS011;68700;48.534;9.196;2024-03-23T17:48:46;4.00;;;1.67;;
12844;SDS011;68700;48.534;9.196;2024-03-23T17:52:11;2.20;;;1.30;;
12844;SDS011;68700;48.534;9.196;2024-03-23T17:55:34;1.63;;;1.13;;
12844;SDS011;68700;48.534;9.196;2024-03-23T17:58:55;1.80;;;1.10;;
12844;SDS011;68700;48.534;9.196;2024-03-23T18:02:17;3.23;;;1.40;;
12844;SDS011;68700;48.534;9.196;2024-03-23T18:05:39;3.10;;;0.93;;
12844;SDS011;68700;48.534;9.196;2024-03-23T18:09:02;0.60;;;0.60;;
12844;SDS011;68700;48.534;9.196;2024-03-23T18:12:24;3.07;;;1.33;;
12844;SDS011;68700;48.534;9.196;2024-03-23T18:15:54;2.87;;;0.93;;
12844;SDS011;68700;48.534;9.196;2024-03-23T18:19:17;1.07;;;0.90;;
12844;SDS011;68700;48.534;9.196;2024-03-23T18:22:39;1.67;;;1.00;;
12844;SDS011;68700;48.534;9.196;2024-03-23T18:26:02;3.20;;;0.80;;
12844;SDS011;68700;48.534;9.196;2024-03-23T18:29:24;3.53;;;1.40;;
12844;SDS011;68700;48.534;9.196;2024-03-23T18:32:46;1.67;;;0.90;;
12844;SDS011;68700;48.534;9.196;2024-03-23T18:36:08;1.17;;;0.90;;
12844;SDS011;68700;48.534;9.196;2024-03-23T18:39:30;1.00;;;0.90;;
12844;SDS011;68700;48.534;9.196;2024-03-23T18:42:54;2.27;;;1.00;;
12844;SDS011;68700;48.534;9.196;2024-03-23T18:46:15;1.37;;;1.10;;
12844;SDS011;68700;48.534;9.196;2024-03-23T18:49:38;2.00;;;0.90;;
12844;SDS011;68700;48.534;9.196;2024-03-23T18:53:00;1.93;;;1.40;;
12844;SDS011;68700;48.534;9.196;2024-03-23T18:56:22;2.80;;;1.40;;
12844;SDS011;68700;48.534;9.196;2024-03-23T18:59:45;3.27;;;1.27;;
12844;SDS011;68700;48.534;9.196;2024-03-23T19:03:06;3.63;;;1.30;;
12844;SDS011;68700;48.534;9.196;2024-03-23T19:06:27;1.47;;;1.10;;
12844;SDS011;68700;48.534;9.196;2024-03-23T19:09:50;2.27;;;1.33;;
12844;SDS011;68700;48.534;9.196;2024-03-23T19:13:12;4.33;;;1.50;;
12844;SDS011;68700;48.534;9.196;2024-03-23T19:16:34;2.03;;;1.50;;
12844;SDS011;68700;48.534;9.196;2024-03-23T19:19:56;2.43;;;1.60;;
12844;SDS011;68700;48.534;9.196;2024-03-23T19:23:18;3.53;;;1.47;;
12844;SDS011;68700;48.534;9.196;2024-03-23T19:26:38;4.43;;;1.30;;
12844;SDS011;68700;48.534;9.196;2024-03-23T19:30:00;1.93;;;1.33;;
12844;SDS011;68700;48.534;9.196;2024-03-23T19:33:25;3.87;;;1.43;;
12844;SDS011;68700;48.534;9.196;2024-03-23T19:36:47;2.10;;;1.40;;
12844;SDS011;68700;48.534;9.196;2024-03-23T19:40:09;2.27;;;1.27;;
12844;SDS011;68700;48.534;9.196;2024-03-23T19:43:31;2.13;;;1.17;;
12844;SDS011;68700;48.534;9.196;2024-03-23T19:46:52;2.67;;;1.40;;
12844;SDS011;68700;48.534;9.196;2024-03-23T19:50:15;2.67;;;1.60;;
12844;SDS011;68700;48.534;9.196;2024-03-23T19:53:37;2.50;;;1.70;;
12844;SDS011;68700;48.534;9.196;2024-03-23T19:56:58;3.60;;;1.63;;
12844;SDS011;68700;48.534;9.196;2024-03-23T20:00:20;4.43;;;1.57;;
12844;SDS011;68700;48.534;9.196;2024-03-23T20:03:44;2.43;;;1.50;;
12844;SDS011;68700;48.534;9.196;2024-03-23T20:07:06;3.47;;;1.40;;
12844;SDS011;68700;48.534;9.196;2024-03-23T20:10:28;2.33;;;1.50;;
12844;SDS011;68700;48.534;9.196;2024-03-23T20:13:50;3.63;;;1.73;;
12844;SDS011;68700;48.534;9.196;2024-03-23T20:17:10;3.40;;;1.53;;
12844;SDS011;68700;48.534;9.196;2024-03-23T20:20:32;2.40;;;1.30;;
12844;SDS011;68700;48.534;9.196;2024-03-23T20:23:57;2.83;;;1.70;;
12844;SDS011;68700;48.534;9.196;2024-03-23T20:27:18;1.90;;;1.53;;
12844;SDS011;68700;48.534;9.196;2024-03-23T20:30:39;2.27;;;1.40;;
12844;SDS011;68700;48.534;9.196;2024-03-23T20:34:01;3.30;;;1.70;;
12844;SDS011;68700;48.534;9.196;2024-03-23T20:37:25;2.90;;;1.53;;
12844;SDS011;68700;48.534;9.196;2024-03-23T20:40:50;3.00;;;1.90;;
12844;SDS011;68700;48.534;9.196;2024-03-23T20:44:12;3.73;;;2.00;;
12844;SDS011;68700;48.534;9.196;2024-03-23T20:47:34;2.53;;;1.83;;
12844;SDS011;68700;48.534;9.196;2024-03-23T20:50:58;2.83;;;1.50;;
12844;SDS011;68700;48.534;9.196;2024-03-23T20:54:21;3.53;;;1.70;;
12844;SDS011;68700;48.534;9.196;2024-03-23T20:57:44;2.83;;;1.40;;
12844;SDS011;68700;48.534;9.196;2024-03-23T21:01:05;2.97;;;1.67;;
12844;SDS011;68700;48.534;9.196;2024-03-23T21:04:29;3.07;;;1.40;;
12844;SDS011;68700;48.534;9.196;2024-03-23T21:07:51;2.03;;;1.47;;
12844;SDS011;68700;48.534;9.196;2024-03-23T21:11:12;1.80;;;1.50;;
12844;SDS011;68700;48.534;9.196;2024-03-23T21:14:35;1.73;;;1.40;;